createdAt,value
2022-09-26T00:00:03.722Z,99715.28
2022-09-26T00:03:06.168Z,99712.47
2022-09-26T00:06:08.988Z,99707.97
2022-09-26T00:09:12.240Z,99704.31
2022-09-26T00:12:15.430Z,99703.69
2022-09-26T00:15:23.003Z,99701.03
2022-09-26T00:18:25.835Z,99708.38
2022-09-26T00:21:30.343Z,99699.22
2022-09-26T00:24:32.799Z,99693.09
2022-09-26T00:27:35.233Z,99692.09
2022-09-26T00:30:37.821Z,99683.34
2022-09-26T00:33:40.398Z,99678.84
2022-09-26T00:36:43.376Z,99688.44
2022-09-26T00:39:45.821Z,99677.41
2022-09-26T00:42:48.207Z,99663.34
2022-09-26T00:45:50.832Z,99676.38
2022-09-26T00:49:15.403Z,99672.09
2022-09-26T00:52:22.933Z,99671.06
2022-09-26T00:55:30.906Z,99667.63
2022-09-26T00:59:07.699Z,99652.53
2022-09-26T01:02:10.315Z,99651.94
2022-09-26T01:05:16.095Z,99648.88
2022-09-26T01:08:21.912Z,99652.75
2022-09-26T01:11:24.405Z,99649.50
2022-09-26T01:14:27.621Z,99648.28
2022-09-26T01:17:30.353Z,99648.28
2022-09-26T01:20:45.759Z,99647.66
2022-09-26T01:24:10.743Z,99651.53
2022-09-26T01:27:25.423Z,99653.38
2022-09-26T01:30:33.896Z,99649.69
2022-09-26T01:34:00.873Z,99644.41
2022-09-26T01:37:36.407Z,99644.19
2022-09-26T01:40:53.471Z,99644.19
2022-09-26T01:44:16.083Z,99647.03
2022-09-26T01:47:28.016Z,99640.72
2022-09-26T01:50:44.420Z,99634.41
2022-09-26T01:53:46.814Z,99630.94
2022-09-26T01:56:51.518Z,99631.75
2022-09-26T01:59:57.849Z,99624.44
2022-09-26T02:03:00.713Z,99627.28
2022-09-26T02:06:07.500Z,99618.53
2022-09-26T02:09:16.833Z,99617.72
2022-09-26T02:12:27.797Z,99607.13
2022-09-26T02:15:31.357Z,99606.31
2022-09-26T02:18:41.884Z,99611.81
2022-09-26T02:21:44.470Z,99620.16
2022-09-26T02:24:46.899Z,99610.59
2022-09-26T02:27:50.375Z,99605.72
2022-09-26T02:30:56.354Z,99609.78
2022-09-26T02:33:58.901Z,99604.28
2022-09-26T02:37:01.353Z,99599.78
2022-09-26T02:40:04.054Z,99595.31
2022-09-26T02:43:28.988Z,99598.78
2022-09-26T02:46:54.074Z,99590.44
2022-09-26T02:50:39.555Z,99604.06
2022-09-26T02:54:10.056Z,99611.00
2022-09-26T02:57:18.327Z,99595.53
2022-09-26T03:00:23.773Z,99608.97
2022-09-26T03:03:34.487Z,99601.84
2022-09-26T03:06:44.726Z,99602.44
2022-09-26T03:09:48.834Z,99587.38
2022-09-26T03:12:51.658Z,99597.97
2022-09-26T03:15:58.816Z,99596.34
2022-09-26T03:19:06.598Z,99590.00
2022-09-26T03:22:09.779Z,99591.84
2022-09-26T03:25:16.337Z,99584.94
2022-09-26T03:28:18.731Z,99587.56
2022-09-26T03:31:22.388Z,99588.81
2022-09-26T03:34:25.004Z,99587.78
2022-09-26T03:37:27.500Z,99593.88
2022-09-26T03:40:30.015Z,99592.06
2022-09-26T03:43:32.481Z,99588.38
2022-09-26T03:46:39.094Z,99594.50
2022-09-26T03:49:42.643Z,99589.19
2022-09-26T03:52:45.067Z,99578.59
2022-09-26T03:55:47.525Z,99559.25
2022-09-26T03:58:50.132Z,99567.00
2022-09-26T04:01:53.932Z,99564.56
2022-09-26T04:04:56.790Z,99552.34
2022-09-26T04:08:00.325Z,99556.63
2022-09-26T04:11:23.081Z,99553.75
2022-09-26T04:14:26.188Z,99553.75
2022-09-26T04:17:29.500Z,99557.22
2022-09-26T04:20:31.987Z,99565.97
2022-09-26T04:23:36.375Z,99565.16
2022-09-26T04:26:40.474Z,99573.09
2022-09-26T04:29:44.172Z,99567.00
2022-09-26T04:32:47.725Z,99569.22
2022-09-26T04:35:50.340Z,99575.53
2022-09-26T04:38:53.532Z,99575.34
2022-09-26T04:41:55.937Z,99562.09
2022-09-26T04:44:58.590Z,99564.94
2022-09-26T04:48:07.817Z,99571.88
2022-09-26T04:51:13.077Z,99567.59
2022-09-26T04:54:16.365Z,99568.19
2022-09-26T04:57:20.042Z,99575.34
2022-09-26T05:00:23.470Z,99566.56
2022-09-26T05:03:26.056Z,99573.72
2022-09-26T05:06:28.493Z,99579.81
2022-09-26T05:09:35.691Z,99570.25
2022-09-26T05:12:41.965Z,99568.19
2022-09-26T05:15:44.389Z,99560.25
2022-09-26T05:18:53.449Z,99560.25
2022-09-26T05:21:55.985Z,99563.72
2022-09-26T05:25:17.019Z,99564.53
2022-09-26T05:28:19.582Z,99564.31
2022-09-26T05:31:24.953Z,99554.53
2022-09-26T05:34:27.451Z,99554.38
2022-09-26T05:37:29.876Z,99557.00
2022-09-26T05:40:51.001Z,99558.44
2022-09-26T05:43:53.903Z,99571.06
2022-09-26T05:46:58.176Z,99564.31
2022-09-26T05:50:00.648Z,99563.09
2022-09-26T05:53:03.561Z,99568.59
2022-09-26T05:56:06.822Z,99565.53
2022-09-26T05:59:09.426Z,99567.37
2022-09-26T06:02:14.298Z,99565.53
2022-09-26T06:05:19.843Z,99564.72
2022-09-26T06:08:22.691Z,99561.25
2022-09-26T06:11:28.073Z,99560.44
2022-09-26T06:14:32.184Z,99559.63
2022-09-26T06:17:34.707Z,99558.41
2022-09-26T06:20:37.242Z,99566.56
2022-09-26T06:23:39.816Z,99568.19
2022-09-26T06:26:42.278Z,99572.03
2022-09-26T06:29:44.686Z,99572.03
2022-09-26T06:32:47.436Z,99576.72
2022-09-26T06:36:00.765Z,99570.19
2022-09-26T06:39:03.462Z,99579.50
2022-09-26T06:42:07.568Z,99588.03
2022-09-26T06:45:11.084Z,99584.66
2022-09-26T06:48:13.486Z,99585.75
2022-09-26T06:51:15.989Z,99585.91
2022-09-26T06:54:18.417Z,99582.34
2022-09-26T06:57:21.643Z,99583.00
2022-09-26T07:00:24.964Z,99585.22
2022-09-26T07:03:27.521Z,99590.75
2022-09-26T07:06:30.205Z,99588.84
2022-09-26T07:09:34.062Z,99595.72
2022-09-26T07:12:37.815Z,99583.59
2022-09-26T07:15:40.253Z,99598.38
2022-09-26T07:18:42.913Z,99613.44
2022-09-26T07:21:46.419Z,99609.09
2022-09-26T07:24:50.374Z,99605.63
2022-09-26T07:27:52.842Z,99610.44
2022-09-26T07:30:57.289Z,99603.66
2022-09-26T07:33:59.878Z,99613.84
2022-09-26T07:37:02.408Z,99612.34
2022-09-26T07:40:06.073Z,99612.31
2022-09-26T07:43:19.655Z,99612.41
2022-09-26T07:46:41.703Z,99608.94
2022-09-26T07:50:02.988Z,99599.09
2022-09-26T07:53:05.706Z,99598.09
2022-09-26T07:56:11.058Z,99600.56
2022-09-26T07:59:13.608Z,99595.34
2022-09-26T08:02:24.767Z,99595.91
2022-09-26T08:05:27.485Z,99596.91
2022-09-26T08:08:30.706Z,99603.34
2022-09-26T08:11:33.296Z,99601.00
2022-09-26T08:14:36.212Z,99606.25
2022-09-26T08:17:42.424Z,99598.06
2022-09-26T08:20:47.140Z,99610.31
2022-09-26T08:23:49.633Z,99612.16
2022-09-26T08:26:55.112Z,99615.47
2022-09-26T08:29:57.891Z,99619.00
2022-09-26T08:33:00.712Z,99619.44
2022-09-26T08:36:08.609Z,99630.41
2022-09-26T08:39:11.540Z,99635.34
2022-09-26T08:42:52.307Z,99638.72
2022-09-26T08:46:35.934Z,99632.94
2022-09-26T08:50:17.457Z,99638.88
2022-09-26T08:53:27.356Z,99623.66
2022-09-26T08:56:40.067Z,99628.53
2022-09-26T08:59:44.985Z,99626.66
2022-09-26T09:03:12.632Z,99635.72
2022-09-26T09:06:16.076Z,99630.19
2022-09-26T09:09:18.577Z,99641.00
2022-09-26T09:12:31.369Z,99635.69
2022-09-26T09:15:51.203Z,99647.16
2022-09-26T09:18:58.825Z,99640.06
2022-09-26T09:22:40.985Z,99640.75
2022-09-26T09:25:55.508Z,99619.69
2022-09-26T09:29:11.389Z,99641.78
2022-09-26T09:32:18.174Z,99631.06
2022-09-26T09:35:29.584Z,99625.09
2022-09-26T09:38:34.348Z,99618.97
2022-09-26T09:41:45.556Z,99622.41
2022-09-26T09:44:58.126Z,99618.94
2022-09-26T09:48:00.716Z,99608.22
2022-09-26T09:51:33.265Z,99609.97
2022-09-26T09:54:55.691Z,99607.69
2022-09-26T09:58:08.222Z,99605.72
2022-09-26T10:01:33.765Z,99603.38
2022-09-26T10:04:44.540Z,99601.53
2022-09-26T10:07:58.503Z,99597.84
2022-09-26T10:11:24.143Z,99605.66
2022-09-26T10:14:34.787Z,99593.91
2022-09-26T10:17:39.456Z,99584.00
2022-09-26T10:20:53.002Z,99589.25
2022-09-26T10:23:55.552Z,99605.50
2022-09-26T10:27:37.063Z,99605.47
2022-09-26T10:30:48.809Z,99599.25
2022-09-26T10:34:00.303Z,99611.00
2022-09-26T10:37:24.868Z,99608.31
2022-09-26T10:40:46.399Z,99601.75
2022-09-26T10:43:54.698Z,99602.75
2022-09-26T10:46:59.354Z,99601.78
2022-09-26T10:50:12.297Z,99598.75
2022-09-26T10:53:15.656Z,99597.81
2022-09-26T10:56:26.323Z,99587.78
2022-09-26T10:59:33.058Z,99585.62
2022-09-26T11:02:38.390Z,99575.06
2022-09-26T11:05:56.523Z,99572.44
2022-09-26T11:09:03.145Z,99567.25
2022-09-26T11:12:26.118Z,99564.91
2022-09-26T11:15:29.896Z,99563.34
2022-09-26T11:18:40.078Z,99551.16
2022-09-26T11:21:58.695Z,99558.97
2022-09-26T11:25:11.978Z,99558.06
2022-09-26T11:28:42.289Z,99555.09
2022-09-26T11:31:46.115Z,99551.53
2022-09-26T11:34:54.440Z,99540.59
2022-09-26T11:38:36.016Z,99534.00
2022-09-26T11:41:48.952Z,99523.91
2022-09-26T11:45:09.602Z,99531.78
2022-09-26T11:48:41.299Z,99534.25
2022-09-26T11:52:08.719Z,99530.25
2022-09-26T11:55:18.389Z,99531.06
2022-09-26T11:58:38.748Z,99524.09
2022-09-26T12:01:53.195Z,99528.63
2022-09-26T12:05:17.189Z,99526.41
2022-09-26T12:08:25.959Z,99523.94
2022-09-26T12:11:59.362Z,99517.69
2022-09-26T12:15:08.648Z,99521.63
2022-09-26T12:18:39.467Z,99518.78
2022-09-26T12:22:09.609Z,99515.06
2022-09-26T12:25:29.835Z,99519.53
2022-09-26T12:28:41.503Z,99509.72
2022-09-26T12:32:02.788Z,99507.38
2022-09-26T12:35:24.910Z,99504.87
2022-09-26T12:38:52.039Z,99496.25
2022-09-26T12:42:11.972Z,99499.81
2022-09-26T12:45:24.045Z,99497.53
2022-09-26T12:48:36.076Z,99500.84
2022-09-26T12:51:42.212Z,99498.72
2022-09-26T12:55:09.796Z,99487.56
2022-09-26T12:58:18.821Z,99485.38
2022-09-26T13:01:44.752Z,99481.03
2022-09-26T13:04:51.200Z,99484.72
2022-09-26T13:08:15.740Z,99484.13
2022-09-26T13:11:36.458Z,99487.44
2022-09-26T13:15:05.305Z,99484.25
2022-09-26T13:18:17.545Z,99478.56
2022-09-26T13:21:24.985Z,99471.16
2022-09-26T13:25:02.095Z,99465.03
2022-09-26T13:28:13.609Z,99463.44
2022-09-26T13:31:27.274Z,99452.72
2022-09-26T13:34:47.469Z,99458.38
2022-09-26T13:38:22.639Z,99452.41
2022-09-26T13:41:38.554Z,99456.69
2022-09-26T13:44:56.518Z,99455.66
2022-09-26T13:48:09.348Z,99450.81
2022-09-26T13:51:28.754Z,99446.53
2022-09-26T13:55:10.458Z,99442.88
2022-09-26T13:58:21.253Z,99449.41
2022-09-26T14:01:27.638Z,99439.81
2022-09-26T14:04:36.802Z,99443.56
2022-09-26T14:07:58.015Z,99440.09
2022-09-26T14:11:11.884Z,99445.44
2022-09-26T14:14:21.446Z,99448.16
2022-09-26T14:17:42.223Z,99445.50
2022-09-26T14:21:06.593Z,99452.03
2022-09-26T14:24:28.228Z,99442.09
2022-09-26T14:27:37.048Z,99444.53
2022-09-26T14:30:39.500Z,99445.06
2022-09-26T14:33:44.247Z,99443.94
2022-09-26T14:36:47.494Z,99429.87
2022-09-26T14:40:00.315Z,99426.12
2022-09-26T14:43:04.952Z,99419.16
2022-09-26T14:46:17.358Z,99409.47
2022-09-26T14:49:25.719Z,99418.47
2022-09-26T14:52:28.343Z,99413.91
2022-09-26T14:55:31.064Z,99409.31
2022-09-26T14:58:36.530Z,99396.97
2022-09-26T15:01:39.255Z,99391.84
2022-09-26T15:04:53.340Z,99394.00
2022-09-26T15:07:57.016Z,99385.94
2022-09-26T15:11:01.607Z,99379.50
2022-09-26T15:14:39.966Z,99373.06
2022-09-26T15:17:47.926Z,99370.53
2022-09-26T15:20:55.229Z,99369.56
2022-09-26T15:23:57.912Z,99364.34
2022-09-26T15:27:15.242Z,99362.34
2022-09-26T15:30:27.492Z,99356.41
2022-09-26T15:33:30.448Z,99357.66
2022-09-26T15:36:34.817Z,99363.09
2022-09-26T15:39:39.579Z,99364.97
2022-09-26T15:43:01.695Z,99372.53
2022-09-26T15:46:20.204Z,99369.22
2022-09-26T15:49:28.617Z,99367.84
2022-09-26T15:52:35.529Z,99369.47
2022-09-26T15:56:02.290Z,99367.78
2022-09-26T15:59:10.366Z,99369.47
2022-09-26T16:02:24.457Z,99376.72
2022-09-26T16:05:27.582Z,99378.38
2022-09-26T16:08:36.908Z,99373.59
2022-09-26T16:11:57.042Z,99371.59
2022-09-26T16:15:17.390Z,99378.09
2022-09-26T16:18:27.049Z,99376.19
2022-09-26T16:21:33.880Z,99374.31
2022-09-26T16:24:36.281Z,99370.66
2022-09-26T16:27:38.835Z,99370.19
2022-09-26T16:31:08.633Z,99381.50
2022-09-26T16:34:26.235Z,99372.47
2022-09-26T16:37:28.842Z,99374.41
2022-09-26T16:40:35.600Z,99373.41
2022-09-26T16:43:39.889Z,99373.00
2022-09-26T16:46:50.970Z,99376.06
2022-09-26T16:49:53.461Z,99371.53
2022-09-26T16:52:55.999Z,99371.06
2022-09-26T16:55:58.614Z,99365.28
2022-09-26T16:59:03.477Z,99361.63
2022-09-26T17:02:09.804Z,99363.06
2022-09-26T17:05:20.661Z,99353.59
2022-09-26T17:08:27.630Z,99353.97
2022-09-26T17:11:30.543Z,99359.41
2022-09-26T17:14:40.801Z,99359.19
2022-09-26T17:17:43.477Z,99353.78
2022-09-26T17:20:46.633Z,99356.56
2022-09-26T17:23:49.221Z,99359.69
2022-09-26T17:27:03.231Z,99355.66
2022-09-26T17:30:11.672Z,99356.91
2022-09-26T17:33:14.588Z,99353.66
2022-09-26T17:36:23.356Z,99354.13
2022-09-26T17:39:26.290Z,99349.03
2022-09-26T17:42:30.441Z,99343.25
2022-09-26T17:45:40.861Z,99350.78
2022-09-26T17:48:44.584Z,99346.03
2022-09-26T17:51:47.455Z,99346.34
2022-09-26T17:54:52.280Z,99346.91
2022-09-26T17:57:58.601Z,99351.53
2022-09-26T18:01:03.760Z,99350.47
2022-09-26T18:04:07.677Z,99362.38
2022-09-26T18:07:15.664Z,99352.66
2022-09-26T18:10:23.954Z,99355.53
2022-09-26T18:13:31.768Z,99356.81
2022-09-26T18:16:34.558Z,99364.19
2022-09-26T18:19:38.511Z,99361.75
2022-09-26T18:22:41.260Z,99369.50
2022-09-26T18:25:48.550Z,99366.50
2022-09-26T18:28:55.922Z,99369.56
2022-09-26T18:31:59.424Z,99373.25
2022-09-26T18:35:04.403Z,99374.97
2022-09-26T18:38:07.368Z,99373.56
2022-09-26T18:41:10.543Z,99375.53
2022-09-26T18:44:16.760Z,99380.81
2022-09-26T18:47:19.509Z,99371.00
2022-09-26T18:50:36.206Z,99377.22
2022-09-26T18:53:40.528Z,99379.94
2022-09-26T18:57:01.885Z,99374.84
2022-09-26T19:00:08.367Z,99368.28
2022-09-26T19:03:11.812Z,99371.31
2022-09-26T19:06:19.238Z,99367.09
2022-09-26T19:09:22.845Z,99371.00
2022-09-26T19:12:25.444Z,99356.41
2022-09-26T19:15:29.070Z,99363.28
2022-09-26T19:18:31.800Z,99363.59
2022-09-26T19:21:42.826Z,99363.59
2022-09-26T19:24:49.445Z,99362.56
2022-09-26T19:27:54.724Z,99366.63
2022-09-26T19:30:57.413Z,99369.50
2022-09-26T19:34:00.516Z,99365.22
2022-09-26T19:37:06.001Z,99363.38
2022-09-26T19:40:16.884Z,99361.75
2022-09-26T19:43:20.545Z,99361.97
2022-09-26T19:46:27.698Z,99359.16
2022-09-26T19:49:32.122Z,99358.78
2022-09-26T19:52:34.631Z,99365.28
2022-09-26T19:55:37.394Z,99365.28
2022-09-26T19:58:40.204Z,99362.28
2022-09-26T20:01:46.432Z,99364.84
2022-09-26T20:04:51.992Z,99367.19
2022-09-26T20:07:54.430Z,99367.59
2022-09-26T20:10:57.205Z,99364.94
2022-09-26T20:14:18.352Z,99362.09
2022-09-26T20:17:25.272Z,99357.22
2022-09-26T20:20:28.021Z,99366.22
2022-09-26T20:23:30.450Z,99350.53
2022-09-26T20:26:33.421Z,99356.28
2022-09-26T20:29:55.037Z,99353.84
2022-09-26T20:32:57.395Z,99351.63
2022-09-26T20:36:03.950Z,99359.22
2022-09-26T20:39:10.365Z,99357.00
2022-09-26T20:42:17.972Z,99358.25
2022-09-26T20:45:25.748Z,99355.22
2022-09-26T20:48:29.747Z,99359.94
2022-09-26T20:51:35.606Z,99358.31
2022-09-26T20:54:38.103Z,99353.59
2022-09-26T20:57:41.707Z,99353.81
2022-09-26T21:00:44.504Z,99353.44
2022-09-26T21:03:58.307Z,99345.13
2022-09-26T21:07:00.812Z,99335.91
2022-09-26T21:10:19.931Z,99337.81
2022-09-26T21:13:23.202Z,99332.38
2022-09-26T21:16:26.067Z,99326.22
2022-09-26T21:19:30.515Z,99320.72
2022-09-26T21:22:34.120Z,99325.41
2022-09-26T21:25:36.743Z,99336.00
2022-09-26T21:28:39.375Z,99334.38
2022-09-26T21:31:44.873Z,99329.31
2022-09-26T21:34:58.742Z,99325.03
2022-09-26T21:38:01.415Z,99317.69
2022-09-26T21:41:04.220Z,99320.91
2022-09-26T21:44:13.276Z,99313.81
2022-09-26T21:47:15.770Z,99309.72
2022-09-26T21:50:20.247Z,99303.84
2022-09-26T21:53:38.799Z,99302.44
2022-09-26T21:56:50.398Z,99305.50
2022-09-26T21:59:53.090Z,99305.50
2022-09-26T22:02:58.972Z,99306.09
2022-09-26T22:06:07.183Z,99302.44
2022-09-26T22:09:10.187Z,99293.47
2022-09-26T22:12:15.803Z,99297.94
2022-09-26T22:15:18.919Z,99295.28
2022-09-26T22:18:21.336Z,99290.19
2022-09-26T22:21:23.765Z,99293.28
2022-09-26T22:24:26.267Z,99288.56
2022-09-26T22:27:28.787Z,99285.91
2022-09-26T22:30:31.384Z,99286.13
2022-09-26T22:33:34.058Z,99281.84
2022-09-26T22:36:36.735Z,99264.34
2022-09-26T22:39:39.128Z,99254.53
2022-09-26T22:42:41.660Z,99245.78
2022-09-26T22:45:44.113Z,99241.53
2022-09-26T22:48:47.531Z,99230.13
2022-09-26T22:51:50.043Z,99231.72
2022-09-26T22:54:52.455Z,99226.06
2022-09-26T22:57:59.425Z,99220.97
2022-09-26T23:01:08.079Z,99214.94
2022-09-26T23:04:10.611Z,99209.84
2022-09-26T23:07:18.405Z,99203.97
2022-09-26T23:10:22.364Z,99203.38
2022-09-26T23:13:25.707Z,99205.88
2022-09-26T23:16:28.843Z,99207.94
2022-09-26T23:19:31.626Z,99200.44
2022-09-26T23:22:34.154Z,99197.78
2022-09-26T23:25:37.586Z,99197.19
2022-09-26T23:28:40.550Z,99195.56
2022-09-26T23:31:43.808Z,99191.53
2022-09-26T23:34:46.341Z,99186.63
2022-09-26T23:37:49.795Z,99185.22
2022-09-26T23:40:52.401Z,99191.19
2022-09-26T23:43:54.826Z,99190.22
2022-09-26T23:47:00.026Z,99193.87
2022-09-26T23:50:02.400Z,99188.44
2022-09-26T23:53:08.032Z,99190.50
2022-09-26T23:56:12.414Z,99185.41
2022-09-26T23:59:17.898Z,99185.84
